Brownfield, ME (04010)

2:55 PM EST on March 04, 2015 (GMT -0500)
misty lane | Change Station
CLOSE
Current Station
Personal Weather Station
Location: Brownfield, ME
Elevation: 404 ft
Nearby Weather Stations

Elev 404 ft 43.94 °N, 70.87 °W | Updated 7 minutes ago

Overcast
Overcast
48.9 °F
Feels Like 49 °F
N
3.0
Wind Variable Wind from SW
Gusts 8.0 mph

Today
High -- | Low -- °F
--% Chance of Precip.
Yesterday
High -- | Low -- °F
Precip. -- in
6:15 AM 5:35 PM
Waxing Gibbous, 99% visible
Pressure 29.66 in
Visibility 10.0 miles
Clouds Clear
Windchill 49 °F
Dew Point 27 °F
Humidity 43%
Rainfall 0.25 in
Snow Depth Not available.
UV 4 out of 12
Pollen .40 out of 12
Air Quality Not available.
Flu Activity Not available.
METAR KIZG 041854Z AUTO 27008G18KT 250V310 10SM CLR 07/M06 A2964 RMK AO2 SLP043 T00721056

More Conditions Fewer Conditions

Pressure 29.66 in
Visibility 10.0 miles
Clouds Clear
Windchill 49 °F
Dew Point 27 °F
Humidity 43%
Rainfall 0.25 in
Snow Depth Not available.
UV 4 out of 12
Pollen .40 out of 12
Air Quality Not available.
Flu Activity Not available.
METAR KIZG 041854Z AUTO 27008G18KT 250V310 10SM CLR 07/M06 A2964 RMK AO2 SLP043 T00721056

More Conditions Fewer Conditions

10-Day Weather Forecast

Almanac

Astronomy

Mar. 04, 2015 Rise Set
Actual Time
Civil Twilight
Nautical Twilight
Astronomical Twilight
Moon
Length of Visible Light
Length of Day
Tomorrow will be .
, % of the Moon is Illuminated

Today's Extremes

State Highs State Lows

Community

WunderPhotos

Upload Photos

1,802,561 photos uploaded!

WunderBlogs® & News

Nearby

Air Quality

  Air Quality AQ Index Pollutant
Not available.

Snow Depth

Station Depth Elevation

Earthquake Activity

City Distance Mag. Time & Date
Minimum magnitude displayed is 2.5.

Coastal Water Temperatures

Place Temperature

Nearby Weather Stations